Scobey, Montana
Current Conditions -  °F | °C
As of 1:53 AM on Sunday 26 Oct 2014 (Local Time) from KOLF Reporting Station
Clear Clear  
Wind Chill: 42°   Ceiling: Unl
Heat Index: 46°   Visibility: 10mi
Dew Point: 33°   Wind: 8mph
Humidity: 61%   Direction: 80°E
Pressure: 29.56"   Gusts: NA
Location:  48.79°N, 105.42°W
Report Text: KOLF 260753Z AUTO 08007KT 10SM CLR 08/01 A2956 RMK AO2 SLP011 T00780006
Loading
Personal Weather Stations






























Interactive Weather Map
Tropical Storm Tracking
New forecast layout! Learn more

10-Day Weather Forecast

Advertisements
Track Severe Weather on mobile